Time;durP1;ratioP1;P1;durP2;ratioP2;P2;SDS_P1;SDS_P2;PMS_P1;PMS_P2;Temp;Humidity;BMP_temperature;BMP_pressure;BME280_temperature;BME280_humidity;BME280_pressure;Samples;Min_cycle;Max_cycle;Signal;HPM_P1;HPM_P2
2022/03/04 00:00:02;;;;;;;23.17;11.35;;;1.10;99.90;;;;;;4912655;28;22547;-77
2022/03/04 00:02:29;;;;;;;25.65;12.30;;;1.10;99.90;;;;;;4945729;28;20051;-77
2022/03/04 00:04:55;;;;;;;24.20;12.27;;;1.10;99.90;;;;;;4897179;28;189431;-78
2022/03/04 00:07:21;;;;;;;23.73;11.10;;;1.10;99.90;;;;;;4951281;28;20059;-77
2022/03/04 00:09:47;;;;;;;24.15;11.32;;;1.00;99.90;;;;;;4914381;28;162624;-77
2022/03/04 00:12:13;;;;;;;28.55;11.93;;;1.00;99.90;;;;;;4937722;28;20062;-77
2022/03/04 00:14:40;;;;;;;23.80;11.38;;;1.00;99.90;;;;;;4913490;28;20034;-77
2022/03/04 00:17:06;;;;;;;23.08;11.48;;;1.00;99.90;;;;;;4937397;28;20445;-76
2022/03/04 00:19:32;;;;;;;26.83;12.18;;;0.90;99.90;;;;;;4926997;28;66977;-76
2022/03/04 00:21:58;;;;;;;24.52;11.07;;;0.90;99.90;;;;;;4922095;28;20055;-77
2022/03/04 00:24:25;;;;;;;24.88;11.73;;;0.90;99.90;;;;;;4913681;28;53197;-76
2022/03/04 00:26:51;;;;;;;22.02;10.45;;;0.90;99.90;;;;;;4969948;28;20063;-77
2022/03/04 00:29:17;;;;;;;26.20;12.50;;;0.80;99.90;;;;;;4913856;28;118370;-77
2022/03/04 00:31:44;;;;;;;23.00;11.43;;;0.80;99.90;;;;;;4956729;28;20070;-77
2022/03/04 00:34:11;;;;;;;24.60;11.23;;;0.80;99.90;;;;;;4934259;28;269532;-78
2022/03/04 00:36:39;;;;;;;21.75;11.02;;;0.80;99.90;;;;;;4913878;28;20046;-74
2022/03/04 00:39:09;;;;;;;23.35;11.15;;;0.70;99.90;;;;;;4917011;28;258099;-76
2022/03/04 00:41:35;;;;;;;24.20;11.63;;;0.70;99.90;;;;;;4902599;28;20039;-76
2022/03/04 00:44:02;;;;;;;23.42;11.48;;;0.70;99.90;;;;;;4931340;28;257752;-76
2022/03/04 00:46:28;;;;;;;24.65;11.38;;;0.60;99.90;;;;;;4928214;28;20047;-76
2022/03/04 00:48:54;;;;;;;28.13;11.82;;;0.60;99.90;;;;;;4932067;28;259469;-77
2022/03/04 00:51:20;;;;;;;25.50;12.32;;;0.60;99.90;;;;;;4928162;28;20384;-77
2022/03/04 00:53:46;;;;;;;25.38;12.60;;;0.50;99.90;;;;;;4956300;28;274633;-76
2022/03/04 00:56:13;;;;;;;25.58;10.70;;;0.50;99.90;;;;;;4928995;28;20047;-76
2022/03/04 00:58:40;;;;;;;26.40;12.15;;;0.50;99.90;;;;;;4950347;28;20496;-77
2022/03/04 01:01:07;;;;;;;23.38;11.65;;;0.40;99.90;;;;;;4913689;28;184426;-77
2022/03/04 01:03:34;;;;;;;25.38;11.32;;;0.40;99.90;;;;;;4959496;28;20059;-76
2022/03/04 01:06:04;;;;;;;23.15;11.15;;;0.30;99.90;;;;;;4906002;28;196265;-77
2022/03/04 01:08:32;;;;;;;26.55;12.77;;;0.30;99.90;;;;;;4963480;28;20058;-76
2022/03/04 01:10:58;;;;;;;26.63;11.93;;;0.30;99.90;;;;;;4907322;28;212394;-76
2022/03/04 01:13:24;;;;;;;25.10;11.70;;;0.20;99.90;;;;;;4959641;28;20524;-76
2022/03/04 01:15:51;;;;;;;27.55;12.65;;;0.10;99.90;;;;;;4913299;28;69711;-77
2022/03/04 01:18:17;;;;;;;27.48;12.13;;;0.10;99.90;;;;;;4945023;28;20055;-76
2022/03/04 01:20:43;;;;;;;28.25;11.80;;;0.10;99.90;;;;;;4931489;28;257154;-76
2022/03/04 01:23:09;;;;;;;30.90;12.65;;;0.10;99.90;;;;;;4947820;28;20150;-76
2022/03/04 01:25:35;;;;;;;25.50;11.93;;;0.10;99.90;;;;;;4908322;28;45631;-77
2022/03/04 01:28:02;;;;;;;30.40;12.90;;;0.00;99.90;;;;;;4952257;28;20485;-76
2022/03/04 01:30:28;;;;;;;25.50;12.10;;;0.00;99.90;;;;;;4906877;28;207117;-76
2022/03/04 01:32:55;;;;;;;28.00;12.20;;;0.00;99.90;;;;;;4941649;28;20054;-77
2022/03/04 01:35:21;;;;;;;26.50;12.23;;;-0.10;99.90;;;;;;4903257;28;97064;-77
2022/03/04 01:37:47;;;;;;;27.23;12.90;;;-0.10;99.90;;;;;;4953629;28;20051;-76
2022/03/04 01:40:14;;;;;;;28.65;13.38;;;-0.10;99.90;;;;;;4919298;28;274649;-76
2022/03/04 01:42:40;;;;;;;27.77;13.05;;;-0.10;99.90;;;;;;4957152;28;20055;-76
2022/03/04 01:45:09;;;;;;;27.30;13.15;;;-0.10;99.90;;;;;;4910916;28;101915;-76
2022/03/04 01:47:39;;;;;;;32.20;13.65;;;-0.10;99.90;;;;;;4948384;28;20131;-78
2022/03/04 01:50:06;;;;;;;31.10;14.70;;;-0.10;99.90;;;;;;4901921;28;251235;-77
2022/03/04 01:52:32;;;;;;;28.45;14.32;;;-0.10;99.90;;;;;;4945091;28;20047;-77
2022/03/04 01:54:58;;;;;;;30.40;13.88;;;-0.10;99.90;;;;;;4908808;28;258074;-76
2022/03/04 01:57:24;;;;;;;29.73;14.32;;;-0.10;99.90;;;;;;4951409;28;20059;-77
2022/03/04 01:59:50;;;;;;;31.42;14.13;;;-0.10;99.90;;;;;;4917183;28;194592;-77
2022/03/04 02:02:16;;;;;;;31.95;14.90;;;-0.10;99.90;;;;;;4954205;28;20047;-76
2022/03/04 02:04:43;;;;;;;31.02;13.65;;;-0.10;99.90;;;;;;4900425;28;105986;-76
2022/03/04 02:07:09;;;;;;;35.17;14.43;;;-0.20;99.90;;;;;;4960686;28;20459;-77
2022/03/04 02:09:35;;;;;;;32.30;14.77;;;-0.20;99.90;;;;;;4921459;28;251997;-76
2022/03/04 02:12:02;;;;;;;33.20;15.75;;;-0.20;99.90;;;;;;4964002;28;20058;-78
2022/03/04 02:14:28;;;;;;;33.08;14.68;;;-0.20;99.90;;;;;;4922368;28;224502;-77
2022/03/04 02:16:54;;;;;;;34.38;15.18;;;-0.30;99.90;;;;;;4943851;28;20055;-76
2022/03/04 02:19:21;;;;;;;36.67;15.88;;;-0.30;99.90;;;;;;4908464;28;276455;-76
2022/03/04 02:21:53;;;;;;;33.33;14.55;;;-0.30;99.90;;;;;;4944067;28;20527;-76
2022/03/04 02:24:19;;;;;;;;;;;-0.30;99.90;;;;;;4940469;28;137323;-76
2022/03/04 02:26:45;;;;;;;35.22;15.15;;;-0.30;99.90;;;;;;4936263;28;19938;-76
2022/03/04 02:29:12;;;;;;;38.60;15.25;;;-0.30;99.90;;;;;;4935467;28;229227;-75
2022/03/04 02:31:38;;;;;;;32.55;14.57;;;-0.40;99.90;;;;;;4936798;28;20040;-78
2022/03/04 02:34:04;;;;;;;33.25;15.48;;;-0.40;99.90;;;;;;4935539;28;262134;-76
2022/03/04 02:36:30;;;;;;;34.50;15.98;;;-0.40;99.90;;;;;;4910588;28;20540;-76
2022/03/04 02:38:56;;;;;;;35.70;15.63;;;-0.40;99.90;;;;;;4932745;28;277396;-76
2022/03/04 02:41:23;;;;;;;36.63;15.88;;;-0.40;99.90;;;;;;4921710;28;20069;-76
2022/03/04 02:43:49;;;;;;;35.00;16.15;;;-0.40;99.90;;;;;;4931570;28;252312;-76
2022/03/04 02:46:15;;;;;;;35.88;16.88;;;-0.40;99.90;;;;;;4934650;28;20047;-76
2022/03/04 02:48:41;;;;;;;40.92;17.45;;;-0.40;99.90;;;;;;4949258;28;20046;-76
2022/03/04 02:51:07;;;;;;;40.13;16.70;;;-0.40;99.90;;;;;;4898586;28;251541;-76
2022/03/04 02:53:34;;;;;;;43.42;17.20;;;-0.40;99.90;;;;;;4940513;28;20047;-76
2022/03/04 02:56:00;;;;;;;46.90;18.98;;;-0.40;99.90;;;;;;4890689;28;166936;-76
2022/03/04 02:58:26;;;;;;;44.45;17.77;;;-0.40;99.90;;;;;;4943926;28;20059;-76
2022/03/04 03:00:52;;;;;;;36.45;17.23;;;-0.40;99.90;;;;;;4935748;28;270241;-76
2022/03/04 03:03:18;;;;;;;41.70;17.45;;;-0.40;99.90;;;;;;4949670;28;20058;-76
2022/03/04 03:05:45;;;;;;;38.53;16.48;;;-0.40;99.90;;;;;;4914879;28;159531;-77
2022/03/04 03:08:11;;;;;;;38.42;16.52;;;-0.50;99.90;;;;;;4947208;28;20055;-77
2022/03/04 03:10:38;;;;;;;39.78;17.63;;;-0.50;99.90;;;;;;4936424;28;88366;-76
2022/03/04 03:13:04;;;;;;;36.88;16.50;;;-0.50;99.90;;;;;;4975313;28;20083;-75
2022/03/04 03:15:31;;;;;;;37.83;16.58;;;-0.50;99.90;;;;;;4932689;28;152714;-75
2022/03/04 03:17:57;;;;;;;36.10;17.38;;;-0.60;99.90;;;;;;4942704;28;20465;-77
2022/03/04 03:20:23;;;;;;;42.20;17.08;;;-0.60;99.90;;;;;;4906946;28;206818;-77
2022/03/04 03:22:49;;;;;;;38.97;16.52;;;-0.60;99.90;;;;;;4940519;28;20059;-76
2022/03/04 03:25:16;;;;;;;39.20;17.35;;;-0.60;99.90;;;;;;4908098;28;226246;-76
2022/03/04 03:27:42;;;;;;;36.97;17.23;;;-0.70;99.90;;;;;;4939720;28;20551;-76
2022/03/04 03:30:09;;;;;;;40.60;16.77;;;-0.70;99.90;;;;;;4938630;28;110887;-76
2022/03/04 03:32:35;;;;;;;36.78;16.55;;;-0.70;99.90;;;;;;4946122;28;20059;-76
2022/03/04 03:35:01;;;;;;;38.53;16.88;;;-0.70;99.90;;;;;;4917217;28;267225;-75
2022/03/04 03:37:27;;;;;;;41.55;17.80;;;-0.80;99.90;;;;;;4948992;28;20066;-76
2022/03/04 03:39:54;;;;;;;38.22;17.75;;;-0.80;99.90;;;;;;4908369;28;197195;-77
2022/03/04 03:42:20;;;;;;;39.78;17.27;;;-0.80;99.90;;;;;;4946517;28;20046;-76
2022/03/04 03:44:46;;;;;;;38.80;17.33;;;-0.90;99.90;;;;;;4913551;28;44244;-76
2022/03/04 03:47:12;;;;;;;37.33;17.13;;;-0.90;99.90;;;;;;4950877;28;20059;-76
2022/03/04 03:49:39;;;;;;;38.78;16.90;;;-0.90;99.90;;;;;;4890983;28;203317;-76
2022/03/04 03:52:06;;;;;;;43.47;18.17;;;-0.90;99.90;;;;;;4952979;28;20511;-77
2022/03/04 03:54:32;;;;;;;48.97;20.02;;;-0.90;99.90;;;;;;4944469;28;41284;-76
2022/03/04 03:56:59;;;;;;;50.58;20.15;;;-0.90;99.90;;;;;;4948736;28;20066;-75
2022/03/04 03:59:25;;;;;;;47.58;19.38;;;-0.90;99.90;;;;;;4922130;28;168033;-75
2022/03/04 04:01:51;;;;;;;42.08;18.48;;;-0.90;99.90;;;;;;4959641;28;20078;-76
2022/03/04 04:04:17;;;;;;;45.97;19.20;;;-0.90;99.90;;;;;;4882082;28;252769;-75
2022/03/04 04:06:44;;;;;;;49.13;20.25;;;-0.90;99.90;;;;;;4964434;28;20133;-76
2022/03/04 04:09:10;;;;;;;52.88;20.63;;;-0.90;99.90;;;;;;4933283;28;154574;-75
2022/03/04 04:11:38;;;;;;;44.05;18.40;;;-0.90;99.90;;;;;;4922030;28;20047;-75
2022/03/04 04:14:06;;;;;;;41.65;18.67;;;-1.00;99.90;;;;;;4933906;28;260929;-76
2022/03/04 04:16:32;;;;;;;44.25;18.90;;;-1.00;99.90;;;;;;4896590;28;20047;-75
2022/03/04 04:18:58;;;;;;;44.28;19.40;;;-1.00;99.90;;;;;;4945951;28;251427;-76
2022/03/04 04:21:26;;;;;;;45.92;19.17;;;-1.00;99.90;;;;;;4895672;28;20050;-75
2022/03/04 04:23:53;;;;;;;47.90;20.47;;;-1.00;99.90;;;;;;4928562;28;264390;-75
2022/03/04 04:26:20;;;;;;;47.70;19.95;;;-1.00;99.90;;;;;;4936217;28;20039;-75
2022/03/04 04:28:46;;;;;;;48.03;20.58;;;-1.10;99.90;;;;;;4926135;28;263893;-75
2022/03/04 04:31:12;;;;;;;47.47;20.15;;;-1.00;99.90;;;;;;4931205;28;20043;-75
2022/03/04 04:33:38;;;;;;;50.80;19.25;;;-1.00;99.90;;;;;;4943266;28;20047;-76
2022/03/04 04:36:05;;;;;;;49.53;19.85;;;-1.00;99.90;;;;;;4912720;28;77913;-75
2022/03/04 04:38:32;;;;;;;47.17;20.48;;;-1.00;99.90;;;;;;4946040;28;20075;-76
2022/03/04 04:40:58;;;;;;;57.00;21.77;;;-1.00;99.90;;;;;;4924938;28;155331;-75
2022/03/04 04:43:24;;;;;;;51.20;20.58;;;-1.00;99.90;;;;;;4946543;28;20059;-76
2022/03/04 04:45:51;;;;;;;56.42;21.65;;;-0.90;99.90;;;;;;4913685;28;226648;-75
2022/03/04 04:48:17;;;;;;;53.63;21.80;;;-0.90;99.90;;;;;;4944311;28;20054;-75
2022/03/04 04:50:43;;;;;;;52.53;20.50;;;-0.90;99.90;;;;;;4910976;28;252617;-75
2022/03/04 04:53:09;;;;;;;54.25;21.67;;;-0.90;99.90;;;;;;4946132;28;20078;-75
2022/03/04 04:55:35;;;;;;;57.67;21.83;;;-0.80;99.90;;;;;;4925762;28;271115;-75
2022/03/04 04:58:02;;;;;;;47.65;20.27;;;-0.80;99.90;;;;;;4954112;28;20058;-75
2022/03/04 05:00:28;;;;;;;55.97;22.02;;;-0.80;99.90;;;;;;4940998;28;22724;-75
2022/03/04 05:02:54;;;;;;;54.33;22.85;;;-0.80;99.90;;;;;;4951874;28;20136;-75
2022/03/04 05:05:20;;;;;;;61.47;22.50;;;-0.80;99.90;;;;;;4900790;28;161888;-75
2022/03/04 05:07:47;;;;;;;58.58;23.92;;;-0.80;99.90;;;;;;4953935;28;20058;-75
2022/03/04 05:10:13;;;;;;;60.03;22.30;;;-0.70;99.90;;;;;;4913107;28;59481;-75
2022/03/04 05:12:40;;;;;;;58.83;21.63;;;-0.70;99.90;;;;;;4948853;28;20043;-75
2022/03/04 05:15:07;;;;;;;56.33;22.30;;;-0.70;99.90;;;;;;4918411;28;150866;-75
2022/03/04 05:17:33;;;;;;;55.65;21.55;;;-0.70;99.90;;;;;;4957504;28;20047;-74
2022/03/04 05:19:59;;;;;;;56.25;23.33;;;-0.70;99.90;;;;;;4916367;28;68591;-75
2022/03/04 05:22:26;;;;;;;56.22;23.60;;;-0.70;99.90;;;;;;4953192;28;20268;-75
2022/03/04 05:24:52;;;;;;;54.85;22.13;;;-0.70;99.90;;;;;;4919974;28;177420;-75
2022/03/04 05:27:18;;;;;;;54.45;24.00;;;-0.60;99.90;;;;;;4968796;28;20453;-75
2022/03/04 05:29:44;;;;;;;57.13;23.08;;;-0.60;99.90;;;;;;4916277;28;157674;-75
2022/03/04 05:32:10;;;;;;;54.05;22.23;;;-0.60;99.90;;;;;;4964815;28;20058;-75
2022/03/04 05:34:37;;;;;;;54.45;22.33;;;-0.60;99.90;;;;;;4911080;28;254651;-75
2022/03/04 05:37:04;;;;;;;53.13;22.60;;;-0.70;99.90;;;;;;4940826;28;21519;-74
2022/03/04 05:39:30;;;;;;;46.88;20.02;;;-0.60;99.90;;;;;;4912650;28;106076;-75
2022/03/04 05:41:56;;;;;;;47.20;20.13;;;-0.60;99.90;;;;;;4950419;28;20062;-75
2022/03/04 05:44:22;;;;;;;51.25;22.05;;;-0.60;99.90;;;;;;4914878;28;149981;-74
2022/03/04 05:46:48;;;;;;;55.38;21.95;;;-0.60;99.90;;;;;;4944835;28;20059;-75
2022/03/04 05:49:14;;;;;;;50.50;22.25;;;-0.60;99.90;;;;;;4922948;28;242952;-75
2022/03/04 05:51:41;;;;;;;53.15;22.08;;;-0.60;99.90;;;;;;4939251;28;20047;-74
2022/03/04 05:54:07;;;;;;;54.47;22.40;;;-0.60;99.90;;;;;;4941813;28;268926;-74
2022/03/04 05:56:33;;;;;;;54.75;23.50;;;-0.60;99.90;;;;;;4956000;28;20096;-74
2022/03/04 05:58:59;;;;;;;52.58;22.45;;;-0.60;99.90;;;;;;4940842;28;263594;-74
2022/03/04 06:01:25;;;;;;;52.88;22.58;;;-0.60;99.90;;;;;;4925598;28;20053;-74
2022/03/04 06:03:51;;;;;;;52.25;22.90;;;-0.60;99.90;;;;;;4926678;28;253211;-75
2022/03/04 06:06:17;;;;;;;49.17;22.15;;;-0.60;99.90;;;;;;4927878;28;20496;-74
2022/03/04 06:08:44;;;;;;;54.72;23.70;;;-0.60;99.90;;;;;;4955401;28;20047;-74
2022/03/04 06:11:10;;;;;;;49.10;22.10;;;-0.60;99.90;;;;;;4905035;28;20428;-74
2022/03/04 06:13:38;;;;;;;54.80;23.27;;;-0.50;99.90;;;;;;4950755;28;20063;-74
2022/03/04 06:16:05;;;;;;;56.38;23.77;;;-0.50;99.90;;;;;;4912675;28;135826;-74
2022/03/04 06:18:31;;;;;;;56.78;24.00;;;-0.50;99.90;;;;;;4986254;28;20442;-74
2022/03/04 06:20:58;;;;;;;51.60;21.70;;;-0.50;99.90;;;;;;4945233;28;187307;-74
2022/03/04 06:23:24;;;;;;;50.88;22.63;;;-0.40;99.90;;;;;;4958727;28;20421;-75
2022/03/04 06:25:50;;;;;;;46.83;20.63;;;-0.40;99.90;;;;;;4936570;28;23739;-74
2022/03/04 06:28:16;;;;;;;47.28;20.52;;;-0.40;99.90;;;;;;4986927;28;20059;-75
2022/03/04 06:30:43;;;;;;;51.58;20.85;;;-0.40;99.90;;;;;;4938496;28;265323;-74
2022/03/04 06:35:54;;;;;;;45.28;21.23;;;-0.40;99.90;;;;;;4903592;28;193057;-74
2022/03/04 06:38:21;;;;;;;45.55;20.38;;;-0.40;99.90;;;;;;4955923;28;20086;-75
2022/03/04 06:40:48;;;;;;;49.75;21.52;;;-0.30;99.90;;;;;;4913647;28;185889;-74
2022/03/04 06:43:15;;;;;;;44.33;19.83;;;-0.40;99.90;;;;;;4952308;28;20401;-74
2022/03/04 06:45:45;;;;;;;45.03;19.83;;;-0.40;99.90;;;;;;4925182;28;261936;-74
2022/03/04 06:48:12;;;;;;;41.30;18.38;;;-0.40;99.90;;;;;;4948769;28;20048;-74
2022/03/04 06:50:39;;;;;;;45.25;21.38;;;-0.40;99.90;;;;;;4926862;28;259696;-74
2022/03/04 06:53:05;;;;;;;42.03;20.23;;;-0.40;99.90;;;;;;4948785;28;20047;-73
2022/03/04 06:55:32;;;;;;;44.05;20.63;;;-0.40;99.90;;;;;;4925868;28;255774;-74
2022/03/04 06:57:59;;;;;;;42.00;20.20;;;-0.40;99.90;;;;;;4948250;28;20429;-74
2022/03/04 07:00:26;;;;;;;42.92;20.30;;;-0.30;99.90;;;;;;4924332;28;188900;-74
2022/03/04 07:02:53;;;;;;;45.47;21.02;;;-0.30;99.90;;;;;;4937875;28;20501;-75
2022/03/04 07:05:22;;;;;;;45.60;21.00;;;-0.30;99.90;;;;;;4898880;28;271930;-74
2022/03/04 07:07:49;;;;;;;43.75;20.90;;;-0.30;99.90;;;;;;4942227;28;20054;-74
2022/03/04 07:10:16;;;;;;;46.08;20.55;;;-0.30;99.90;;;;;;4914719;28;121472;-75
2022/03/04 07:12:42;;;;;;;42.63;20.55;;;-0.20;99.90;;;;;;4947622;28;20066;-74
2022/03/04 07:15:09;;;;;;;41.03;21.08;;;-0.20;99.90;;;;;;4919408;28;49258;-74
2022/03/04 07:17:36;;;;;;;40.80;20.10;;;-0.20;99.90;;;;;;4948176;28;20062;-74
2022/03/04 07:20:03;;;;;;;40.58;20.55;;;-0.20;99.90;;;;;;4917164;28;55523;-75
2022/03/04 07:22:29;;;;;;;40.83;20.98;;;-0.20;99.90;;;;;;4963195;28;20038;-74
2022/03/04 07:24:56;;;;;;;44.63;21.38;;;-0.10;99.90;;;;;;4911926;28;224062;-74
2022/03/04 07:27:22;;;;;;;43.40;22.15;;;-0.10;99.90;;;;;;4949101;28;20059;-74
2022/03/04 07:29:48;;;;;;;43.75;21.48;;;0.00;99.90;;;;;;4906565;28;139720;-74
2022/03/04 07:32:14;;;;;;;43.28;21.25;;;0.10;99.90;;;;;;4933066;28;20051;-74
2022/03/04 07:34:40;;;;;;;40.88;20.80;;;0.10;99.90;;;;;;4915371;28;269724;-75
2022/03/04 07:37:06;;;;;;;43.17;20.10;;;0.10;99.90;;;;;;4955136;28;20051;-75
2022/03/04 07:39:32;;;;;;;40.95;20.60;;;0.20;99.90;;;;;;4911498;28;272228;-75
2022/03/04 07:42:01;;;;;;;41.05;21.27;;;0.30;99.90;;;;;;4959001;28;20424;-75
2022/03/04 07:44:27;;;;;;;39.45;20.77;;;0.30;99.90;;;;;;4908845;28;254456;-74
2022/03/04 07:46:54;;;;;;;39.60;20.13;;;0.30;99.90;;;;;;4939239;28;20056;-71
2022/03/04 07:49:20;;;;;;;41.30;20.65;;;0.40;99.90;;;;;;4908325;28;263725;-71
2022/03/04 07:51:47;;;;;;;40.65;20.58;;;0.30;99.90;;;;;;4968520;28;20055;-72
2022/03/04 07:54:13;;;;;;;38.22;20.38;;;0.30;99.90;;;;;;4930270;28;197149;-71
2022/03/04 07:56:40;;;;;;;40.67;21.00;;;0.30;99.90;;;;;;4892285;28;20055;-71
2022/03/04 07:59:07;;;;;;;41.97;21.17;;;0.30;99.90;;;;;;4940051;28;273027;-72
2022/03/04 08:01:33;;;;;;;40.55;21.38;;;0.30;99.90;;;;;;4957148;28;20046;-72
2022/03/04 08:03:59;;;;;;;41.42;22.00;;;0.40;99.90;;;;;;4930249;28;254391;-72
2022/03/04 08:06:25;;;;;;;44.90;21.80;;;0.50;99.90;;;;;;4907104;28;20387;-72
2022/03/04 08:08:51;;;;;;;36.83;19.27;;;0.60;99.90;;;;;;4920767;28;270543;-73
2022/03/04 08:11:17;;;;;;;40.75;21.48;;;0.60;99.90;;;;;;4918520;28;20102;-73
2022/03/04 08:13:43;;;;;;;41.58;20.92;;;0.70;99.90;;;;;;4951521;28;20524;-73
2022/03/04 08:16:10;;;;;;;37.85;20.67;;;0.80;99.90;;;;;;4933996;28;20046;-73
2022/03/04 08:18:36;;;;;;;37.85;21.10;;;0.90;99.90;;;;;;4954514;28;20073;-76
2022/03/04 08:21:03;;;;;;;39.67;20.23;;;1.00;99.90;;;;;;4939643;28;254808;-74
2022/03/04 08:23:30;;;;;;;38.13;20.20;;;1.10;99.90;;;;;;4957266;28;20051;-74
2022/03/04 08:25:57;;;;;;;36.13;20.13;;;1.20;99.90;;;;;;4939224;28;258173;-74
2022/03/04 08:28:23;;;;;;;36.38;20.20;;;1.20;99.90;;;;;;4986313;28;20061;-76
2022/03/04 08:30:49;;;;;;;37.03;19.65;;;1.40;99.90;;;;;;4915038;28;103935;-74
2022/03/04 08:33:16;;;;;;;33.75;19.42;;;1.30;99.90;;;;;;4958518;28;20058;-74
2022/03/04 08:35:42;;;;;;;37.00;19.13;;;1.30;99.90;;;;;;4942069;28;255618;-77
2022/03/04 08:38:08;;;;;;;36.10;19.98;;;1.20;99.90;;;;;;4959017;28;20590;-78
2022/03/04 08:40:34;;;;;;;38.25;19.98;;;1.20;99.90;;;;;;4924933;28;21477;-76
2022/03/04 08:43:00;;;;;;;36.20;20.35;;;1.30;99.90;;;;;;4934348;28;20055;-78
2022/03/04 08:45:27;;;;;;;36.15;20.27;;;1.30;99.90;;;;;;4920754;28;55340;-77
2022/03/04 08:47:53;;;;;;;38.03;21.00;;;1.40;99.90;;;;;;4950259;28;21036;-77
2022/03/04 08:50:21;;;;;;;36.13;20.67;;;1.50;99.90;;;;;;4916673;28;199547;-78
2022/03/04 08:52:48;;;;;;;36.60;21.00;;;1.60;99.90;;;;;;4956547;28;20059;-77
2022/03/04 08:55:14;;;;;;;36.65;21.45;;;1.70;99.90;;;;;;4921070;28;74967;-78
2022/03/04 08:57:45;;;;;;;36.20;20.38;;;1.90;99.90;;;;;;4954149;28;20508;-78
2022/03/04 09:00:13;;;;;;;32.45;19.38;;;2.00;99.90;;;;;;4920960;28;101505;-79
2022/03/04 09:02:40;;;;;;;33.72;19.20;;;2.20;99.90;;;;;;4945659;28;20051;-77
2022/03/04 09:05:06;;;;;;;32.42;19.08;;;2.30;99.90;;;;;;4911599;28;122003;-77
2022/03/04 09:07:33;;;;;;;34.58;20.52;;;2.50;99.90;;;;;;4953992;28;20436;-77
2022/03/04 09:09:59;;;;;;;34.33;19.65;;;2.60;99.90;;;;;;4918741;28;267194;-79
2022/03/04 09:12:25;;;;;;;33.33;19.92;;;2.80;99.90;;;;;;4953395;28;20054;-78
2022/03/04 09:14:52;;;;;;;33.45;19.80;;;2.90;99.90;;;;;;4920820;28;56565;-81
2022/03/04 09:17:18;;;;;;;32.40;19.92;;;3.00;99.90;;;;;;4957990;28;20543;-77
2022/03/04 09:19:44;;;;;;;34.53;20.00;;;3.10;99.90;;;;;;4919221;28;170150;-78
2022/03/04 09:22:10;;;;;;;33.05;19.10;;;3.30;99.90;;;;;;4958034;28;20058;-78
2022/03/04 09:24:37;;;;;;;31.25;18.52;;;3.30;99.90;;;;;;4917401;28;56804;-78
2022/03/04 09:27:03;;;;;;;30.55;19.60;;;3.40;99.90;;;;;;4955564;28;20043;-78
2022/03/04 09:29:29;;;;;;;29.90;19.23;;;3.50;99.90;;;;;;4908766;28;212244;-80
2022/03/04 09:31:56;;;;;;;31.23;20.02;;;3.60;99.90;;;;;;4962564;28;20070;-79
2022/03/04 09:34:22;;;;;;;29.88;19.27;;;3.80;99.90;;;;;;4906922;28;244988;-81
2022/03/04 09:36:48;;;;;;;31.45;20.20;;;4.00;99.90;;;;;;4945550;28;20056;-79
2022/03/04 09:39:14;;;;;;;28.55;19.05;;;4.20;99.90;;;;;;4928138;28;251232;-76
2022/03/04 09:41:45;;;;;;;30.45;18.50;;;4.20;99.90;;;;;;4923354;28;20043;-79
2022/03/04 09:44:15;;;;;;;29.70;18.13;;;4.00;99.90;;;;;;4960762;28;82635;-78
2022/03/04 09:46:42;;;;;;;27.83;18.15;;;3.90;99.90;;;;;;4919987;28;20041;-78
2022/03/04 09:49:09;;;;;;;28.73;18.13;;;3.80;99.90;;;;;;4930568;28;27062;-79
2022/03/04 09:51:36;;;;;;;29.52;17.10;;;3.80;99.90;;;;;;4898803;28;20405;-78
2022/03/04 09:54:02;;;;;;;28.50;18.63;;;3.80;99.90;;;;;;4923042;28;266969;-78
2022/03/04 09:56:28;;;;;;;28.90;18.10;;;3.80;99.90;;;;;;4936055;28;20047;-79
2022/03/04 09:58:54;;;;;;;27.10;17.67;;;3.80;99.90;;;;;;4933744;28;279098;-79
2022/03/04 10:01:20;;;;;;;28.25;17.90;;;3.90;99.90;;;;;;4915911;28;20509;-79
2022/03/04 10:03:49;;;;;;;28.92;18.38;;;4.00;99.90;;;;;;4918585;28;260311;-80
2022/03/04 10:06:17;;;;;;;29.70;19.15;;;4.10;99.90;;;;;;4938868;28;20099;-79
2022/03/04 10:08:48;;;;;;;27.38;18.10;;;4.10;99.90;;;;;;4986319;28;20055;-80
2022/03/04 10:11:28;;;;;;;28.55;18.15;;;4.10;99.90;;;;;;4907445;28;20049;-79
2022/03/04 10:13:56;;;;;;;28.93;17.70;;;4.10;99.90;;;;;;4953381;28;269254;-79
2022/03/04 10:16:30;;;;;;;27.42;18.27;;;4.10;99.90;;;;;;4955582;28;20039;-80
2022/03/04 10:19:11;;;;;;;27.25;17.48;;;4.00;99.90;;;;;;4938003;28;272103;-79
2022/03/04 10:22:04;;;;;;;29.10;17.75;;;3.80;99.90;;;;;;4941237;28;20513;-79
2022/03/04 10:24:34;;;;;;;28.83;17.60;;;3.60;99.90;;;;;;4918947;28;152229;-79
2022/03/04 10:27:02;;;;;;;29.75;18.50;;;3.60;99.90;;;;;;4965480;28;20055;-79
2022/03/04 10:29:30;;;;;;;30.15;17.77;;;3.50;99.90;;;;;;4914527;28;253243;-79
2022/03/04 10:32:05;;;;;;;27.92;17.50;;;3.50;99.90;;;;;;4951044;28;20055;-79
2022/03/04 10:34:48;;;;;;;30.00;16.73;;;3.40;99.90;;;;;;4915628;28;209482;-80
2022/03/04 10:37:17;;;;;;;31.15;18.30;;;3.30;99.90;;;;;;4959915;28;20055;-79
2022/03/04 10:40:09;;;;;;;32.20;17.65;;;3.30;99.90;;;;;;4907106;28;210913;-79
2022/03/04 10:42:52;;;;;;;29.42;17.13;;;3.30;99.90;;;;;;4948132;28;20051;-80
2022/03/04 10:45:24;;;;;;;28.95;18.10;;;3.30;99.90;;;;;;4923146;28;68483;-80
2022/03/04 10:48:09;;;;;;;28.80;16.30;;;3.30;99.90;;;;;;4937470;28;20521;-80
2022/03/04 10:50:38;;;;;;;30.17;17.48;;;3.40;99.90;;;;;;4917175;28;75784;-80
2022/03/04 10:53:16;;;;;;;28.10;16.23;;;3.60;99.90;;;;;;4939146;28;20081;-79
2022/03/04 10:55:49;;;;;;;26.95;16.75;;;4.20;99.90;;;;;;4924317;28;242473;-80
2022/03/04 10:58:23;;;;;;;26.17;16.98;;;4.80;99.90;;;;;;4987471;28;20065;-81
2022/03/04 11:00:50;;;;;;;25.60;16.98;;;5.60;99.90;;;;;;4926745;28;48483;-81
2022/03/04 11:03:25;;;;;;;24.25;16.23;;;6.60;99.90;;;;;;4957678;28;20073;-80
2022/03/04 11:05:54;;;;;;;23.05;15.55;;;7.50;99.90;;;;;;4896603;28;220360;-78
2022/03/04 11:08:21;;;;;;;20.75;13.23;;;8.30;99.90;;;;;;4981877;28;20523;-78
2022/03/04 11:10:49;;;;;;;21.20;13.75;;;8.90;99.90;;;;;;4912998;28;63372;-80
2022/03/04 11:13:15;;;;;;;21.35;14.65;;;9.60;99.90;;;;;;4955297;28;20061;-80
2022/03/04 11:15:43;;;;;;;25.33;13.77;;;10.20;99.90;;;;;;4913238;28;77877;-80
2022/03/04 11:18:12;;;;;;;19.80;12.70;;;10.80;99.90;;;;;;4950354;28;20521;-80
2022/03/04 11:20:39;;;;;;;21.20;14.43;;;11.60;99.90;;;;;;4921675;28;121424;-80
2022/03/04 11:23:07;;;;;;;19.52;12.85;;;12.30;99.90;;;;;;4952359;28;20083;-81
2022/03/04 11:25:39;;;;;;;23.65;14.07;;;12.80;99.90;;;;;;4918236;28;212430;-79
2022/03/04 11:28:37;;;;;;;20.88;12.77;;;13.10;99.70;;;;;;4948244;28;20466;-79
2022/03/04 11:31:08;;;;;;;18.02;12.30;;;13.60;95.90;;;;;;4912149;28;204020;-81
2022/03/04 11:33:34;;;;;;;18.90;13.82;;;13.80;94.90;;;;;;4986281;28;20057;-81
2022/03/04 11:36:12;;;;;;;18.00;13.15;;;14.40;96.50;;;;;;4933187;28;128254;-81
2022/03/04 11:38:53;;;;;;;17.35;12.40;;;14.80;90.10;;;;;;4971678;28;20383;-81
2022/03/04 11:41:30;;;;;;;17.65;11.73;;;15.00;83.50;;;;;;4908759;28;20046;-79
2022/03/04 11:44:10;;;;;;;16.75;11.30;;;14.70;77.50;;;;;;4914344;28;251869;-79
2022/03/04 11:46:58;;;;;;;15.88;11.45;;;14.60;76.20;;;;;;4926833;28;20712;-80
2022/03/04 11:49:43;;;;;;;20.25;11.93;;;14.70;76.60;;;;;;4895572;28;49372;-82
2022/03/04 11:52:11;;;;;;;14.77;10.85;;;15.00;76.20;;;;;;4963682;28;20086;-80
2022/03/04 11:54:43;;;;;;;17.58;12.13;;;15.40;75.00;;;;;;4909552;28;232561;-81
2022/03/04 11:57:15;;;;;;;16.73;11.45;;;15.80;74.60;;;;;;4944694;28;20062;-81
2022/03/04 11:59:51;;;;;;;16.77;11.65;;;16.30;72.70;;;;;;4920214;28;216644;-82
2022/03/04 12:02:34;;;;;;;16.33;11.50;;;16.90;71.80;;;;;;4946631;28;20267;-80
2022/03/04 12:05:13;;;;;;;16.10;11.43;;;17.40;62.90;;;;;;4903623;28;263694;-80
2022/03/04 12:07:41;;;;;;;16.00;11.60;;;17.60;62.90;;;;;;4941097;28;20417;-81
2022/03/04 12:10:09;;;;;;;15.70;11.68;;;17.70;62.70;;;;;;4926984;28;126727;-80
2022/03/04 12:12:36;;;;;;;15.75;10.60;;;17.30;61.10;;;;;;4958403;28;20058;-81
2022/03/04 12:15:17;;;;;;;15.15;11.18;;;17.40;63.30;;;;;;4923689;28;170772;-82
2022/03/04 12:17:59;;;;;;;15.55;10.73;;;18.10;61.90;;;;;;4940408;28;20055;-80
2022/03/04 12:20:30;;;;;;;16.75;11.45;;;18.30;57.60;;;;;;4923808;28;20087;-81
2022/03/04 12:22:58;;;;;;;15.48;11.35;;;18.70;59.70;;;;;;4966752;28;20055;-82
2022/03/04 12:25:56;;;;;;;18.00;11.57;;;19.20;60.00;;;;;;4915068;28;212996;-80
2022/03/04 12:28:45;;;;;;;16.45;11.57;;;19.60;55.20;;;;;;4963054;28;20051;-80
2022/03/04 12:31:11;;;;;;;17.38;11.20;;;19.00;53.00;;;;;;4910324;28;20050;-79
2022/03/04 12:33:40;;;;;;;16.73;12.00;;;19.00;53.80;;;;;;4956548;28;20059;-79